Time;durP1;ratioP1;P1;durP2;ratioP2;P2;SDS_P1;SDS_P2;PMS_P1;PMS_P2;Temp;Humidity;BMP_temperature;BMP_pressure;BME280_temperature;BME280_humidity;BME280_pressure;Samples;Min_cycle;Max_cycle;Signal;HPM_P1;HPM_P2
2022/07/24 00:01:09;;;;;;;35.57;24.20;;;19.80;99.90;;;;;;5075783;28;20220;-81
2022/07/24 00:03:37;;;;;;;38.53;25.50;;;19.80;99.90;;;;;;5093773;28;20517;-81
2022/07/24 00:06:05;;;;;;;38.23;25.97;;;19.80;99.90;;;;;;5075740;28;20238;-81
2022/07/24 00:08:32;;;;;;;40.80;26.63;;;19.80;99.90;;;;;;5075890;28;20254;-81
2022/07/24 00:10:59;;;;;;;38.73;27.00;;;19.80;99.90;;;;;;5075511;28;20193;-82
2022/07/24 00:13:26;;;;;;;37.53;26.07;;;19.80;99.90;;;;;;5075531;28;20223;-81
2022/07/24 00:15:53;;;;;;;44.07;27.30;;;19.80;99.90;;;;;;5075517;28;20692;-81
2022/07/24 00:18:20;;;;;;;39.37;26.70;;;19.80;99.90;;;;;;5075771;28;20201;-80
2022/07/24 00:20:47;;;;;;;39.97;26.97;;;19.90;99.90;;;;;;5075488;28;20629;-80
2022/07/24 00:23:14;;;;;;;39.03;25.80;;;19.90;99.90;;;;;;5059206;28;20616;-80
2022/07/24 00:25:41;;;;;;;41.93;26.90;;;19.90;99.90;;;;;;5075649;28;20211;-80
2022/07/24 00:28:08;;;;;;;40.77;26.57;;;19.90;99.90;;;;;;5075597;28;20710;-81
2022/07/24 00:30:37;;;;;;;37.70;24.73;;;19.90;99.90;;;;;;5075171;28;20209;-82
2022/07/24 00:33:04;;;;;;;38.47;26.20;;;19.90;99.90;;;;;;5074755;28;20222;-82
2022/07/24 00:35:31;;;;;;;41.10;26.03;;;19.80;99.90;;;;;;5075108;28;20207;-81
2022/07/24 00:37:58;;;;;;;36.20;24.63;;;19.80;99.90;;;;;;5093630;28;20224;-81
2022/07/24 00:40:25;;;;;;;35.47;24.73;;;19.90;99.90;;;;;;5074845;28;20224;-82
2022/07/24 00:42:53;;;;;;;33.80;23.77;;;19.90;99.90;;;;;;5047193;23;20321;-81
2022/07/24 00:45:23;;;;;;;42.17;25.00;;;19.80;99.90;;;;;;5031718;28;20203;-81
2022/07/24 00:47:52;;;;;;;35.20;22.80;;;19.80;99.90;;;;;;5031962;28;20217;-81
2022/07/24 00:50:25;;;;;;;36.93;24.63;;;19.70;99.90;;;;;;5031792;28;20286;-81
2022/07/24 00:52:53;;;;;;;33.60;23.47;;;19.80;99.90;;;;;;5031404;28;20213;-81
2022/07/24 00:55:21;;;;;;;31.03;23.27;;;19.80;99.90;;;;;;5031923;28;20369;-81
2022/07/24 00:57:49;;;;;;;32.33;23.23;;;19.80;99.90;;;;;;5031763;28;20195;-81
2022/07/24 01:00:19;;;;;;;33.13;21.83;;;19.80;99.90;;;;;;5048204;28;20298;-81
2022/07/24 01:02:46;;;;;;;31.23;22.33;;;19.90;99.90;;;;;;5032759;28;20226;-81
2022/07/24 01:05:13;;;;;;;34.13;21.30;;;19.80;99.90;;;;;;5033235;28;20214;-81
2022/07/24 01:07:45;;;;;;;30.93;22.27;;;19.70;99.90;;;;;;5031546;28;20294;-81
2022/07/24 01:10:13;;;;;;;34.63;22.93;;;19.70;99.90;;;;;;5034006;28;20209;-81
2022/07/24 01:12:40;;;;;;;31.97;21.60;;;19.70;99.90;;;;;;5035599;28;20205;-81
2022/07/24 01:15:09;;;;;;;33.40;21.67;;;19.70;99.90;;;;;;5035809;28;20763;-81
2022/07/24 01:17:43;;;;;;;34.63;22.07;;;19.70;99.90;;;;;;5035570;28;20199;-80
2022/07/24 01:20:10;;;;;;;31.00;21.83;;;19.80;99.90;;;;;;5035813;28;20735;-80
2022/07/24 01:22:37;;;;;;;34.30;21.37;;;19.80;99.90;;;;;;5035444;28;20274;-81
2022/07/24 01:25:08;;;;;;;31.73;20.93;;;19.80;99.90;;;;;;5035576;28;20258;-81
2022/07/24 01:27:35;;;;;;;29.37;21.53;;;19.80;99.90;;;;;;5036921;28;20633;-81
2022/07/24 01:30:03;;;;;;;28.67;20.17;;;19.70;99.90;;;;;;5036816;28;20192;-81
2022/07/24 01:32:30;;;;;;;29.80;21.20;;;19.70;99.90;;;;;;5035253;28;20199;-81
2022/07/24 01:34:57;;;;;;;30.60;20.10;;;19.70;99.90;;;;;;5035253;28;20221;-81
2022/07/24 01:37:24;;;;;;;30.07;21.00;;;19.70;99.90;;;;;;5035387;28;20206;-81
2022/07/24 01:39:51;;;;;;;31.17;20.00;;;19.60;99.90;;;;;;5036368;28;20191;-81
2022/07/24 01:42:19;;;;;;;27.00;20.20;;;19.50;99.90;;;;;;5034809;28;20229;-81
2022/07/24 01:44:47;;;;;;;22.03;15.93;;;19.50;99.90;;;;;;5035187;28;20231;-81
2022/07/24 01:47:14;;;;;;;16.50;11.50;;;19.50;99.90;;;;;;5035276;28;20319;-81
2022/07/24 01:49:42;;;;;;;11.13;7.80;;;19.40;99.90;;;;;;5034885;28;20203;-81
2022/07/24 01:52:10;;;;;;;10.00;6.50;;;19.30;99.90;;;;;;5034806;28;20195;-82
2022/07/24 01:54:37;;;;;;;9.03;6.10;;;19.10;99.90;;;;;;5035063;28;20618;-81
2022/07/24 01:57:04;;;;;;;6.17;4.37;;;19.00;99.90;;;;;;5036380;28;20226;-80
2022/07/24 01:59:32;;;;;;;6.63;4.27;;;18.80;99.90;;;;;;5034868;28;20199;-81
2022/07/24 02:02:00;;;;;;;5.90;4.20;;;18.70;99.90;;;;;;5034629;28;20246;-80
2022/07/24 02:04:27;;;;;;;4.73;3.63;;;18.60;99.90;;;;;;5035922;28;20187;-82
2022/07/24 02:06:54;;;;;;;5.10;3.57;;;18.60;99.90;;;;;;5035371;28;20668;-82
2022/07/24 02:09:21;;;;;;;4.43;3.43;;;18.50;99.90;;;;;;5034877;28;20556;-82
2022/07/24 02:11:48;;;;;;;4.67;3.33;;;18.40;99.90;;;;;;5034549;28;20661;-82
2022/07/24 02:14:15;;;;;;;5.40;3.30;;;18.30;99.90;;;;;;5018315;28;20224;-81
2022/07/24 02:16:42;;;;;;;5.97;3.63;;;18.30;99.90;;;;;;5034563;28;20219;-81
2022/07/24 02:19:09;;;;;;;4.73;3.43;;;18.40;99.90;;;;;;5034359;28;20704;-81
2022/07/24 02:21:37;;;;;;;5.83;3.30;;;18.30;99.90;;;;;;5033738;28;20310;-82
2022/07/24 02:24:04;;;;;;;4.90;3.47;;;18.20;99.90;;;;;;5034518;28;20294;-81
2022/07/24 02:26:31;;;;;;;6.77;3.57;;;18.10;99.90;;;;;;5034562;28;20198;-82
2022/07/24 02:28:58;;;;;;;5.17;3.30;;;18.10;99.90;;;;;;5034390;28;20641;-82
2022/07/24 02:31:25;;;;;;;5.77;2.90;;;18.00;99.90;;;;;;5034396;28;20210;-83
2022/07/24 02:33:52;;;;;;;5.93;2.90;;;18.00;99.90;;;;;;5034140;28;20549;-82
2022/07/24 02:36:19;;;;;;;4.00;2.70;;;17.90;99.90;;;;;;5017620;28;20312;-82
2022/07/24 02:38:46;;;;;;;3.50;2.57;;;17.90;99.90;;;;;;5138572;22;20204;-81
2022/07/24 02:41:13;;;;;;;3.83;2.50;;;17.90;99.90;;;;;;5077197;28;20642;-82
2022/07/24 02:43:40;;;;;;;4.70;2.40;;;17.90;99.90;;;;;;5077353;28;20215;-83
2022/07/24 02:46:07;;;;;;;5.03;2.40;;;17.90;99.90;;;;;;5095602;28;20690;-82
2022/07/24 02:48:34;;;;;;;3.37;2.43;;;17.80;99.90;;;;;;5077490;28;20553;-82
2022/07/24 02:51:01;;;;;;;3.60;2.53;;;17.90;99.90;;;;;;5077573;28;20197;-82
2022/07/24 02:53:28;;;;;;;6.37;2.60;;;17.90;99.90;;;;;;5095449;28;20193;-82
2022/07/24 02:55:55;;;;;;;4.80;2.20;;;17.90;99.90;;;;;;5095301;28;20177;-81
2022/07/24 02:58:22;;;;;;;3.90;2.20;;;17.90;99.90;;;;;;5077064;28;20200;-82
2022/07/24 03:00:49;;;;;;;5.60;2.27;;;17.80;99.90;;;;;;5095279;28;20203;-81
2022/07/24 03:03:16;;;;;;;12.20;2.87;;;17.90;99.90;;;;;;5077099;28;20553;-82
2022/07/24 03:05:43;;;;;;;2.60;2.03;;;17.90;99.90;;;;;;5076917;28;20182;-83
2022/07/24 03:08:10;;;;;;;6.57;2.50;;;17.90;99.90;;;;;;5076598;28;20197;-83
2022/07/24 03:10:37;;;;;;;4.07;2.20;;;17.90;99.90;;;;;;5063264;22;20234;-85
2022/07/24 03:13:10;;;;;;;3.53;1.97;;;17.90;99.90;;;;;;5020480;28;20229;-81
2022/07/24 03:15:39;;;;;;;3.07;2.10;;;17.90;99.90;;;;;;5020696;28;20258;-83
2022/07/24 03:18:06;;;;;;;6.50;2.57;;;17.90;99.90;;;;;;5054809;28;20648;-82
2022/07/24 03:20:47;;;;;;;4.63;2.00;;;18.00;99.90;;;;;;5053403;28;20729;-82
2022/07/24 03:23:14;;;;;;;3.33;1.90;;;17.90;99.90;;;;;;5053191;28;20539;-83
2022/07/24 03:25:41;;;;;;;3.40;2.13;;;17.90;99.90;;;;;;5053403;28;20203;-82
2022/07/24 03:28:08;;;;;;;3.40;2.10;;;18.00;99.90;;;;;;5053106;28;20199;-84
2022/07/24 03:30:36;;;;;;;4.40;2.10;;;17.90;99.90;;;;;;5052903;28;20207;-83
2022/07/24 03:33:03;;;;;;;4.70;2.13;;;17.90;99.90;;;;;;5036286;28;20228;-83
2022/07/24 03:35:30;;;;;;;4.97;2.03;;;17.90;99.90;;;;;;5036339;28;20225;-83
2022/07/24 03:37:57;;;;;;;4.57;2.20;;;18.00;99.90;;;;;;5053001;28;20218;-83
2022/07/24 03:40:24;;;;;;;2.50;1.87;;;17.90;99.90;;;;;;5036131;28;20222;-83
2022/07/24 03:42:51;;;;;;;4.23;2.00;;;17.90;99.90;;;;;;5054073;28;20221;-82
2022/07/24 03:45:18;;;;;;;3.43;2.10;;;17.90;99.90;;;;;;5035957;28;20666;-83
2022/07/24 03:47:45;;;;;;;2.80;1.87;;;17.90;99.90;;;;;;5052964;28;20190;-82
2022/07/24 03:50:13;;;;;;;5.03;2.10;;;17.90;99.90;;;;;;5036435;28;20601;-82
2022/07/24 03:52:48;;;;;;;2.00;1.80;;;17.90;99.90;;;;;;5052507;28;20252;-83
2022/07/24 03:55:16;;;;;;;3.93;2.00;;;17.90;99.90;;;;;;5036498;28;20305;-83
2022/07/24 03:57:43;;;;;;;3.43;1.93;;;17.80;99.90;;;;;;5052497;28;20209;-82
2022/07/24 04:00:10;;;;;;;2.97;1.93;;;17.80;99.90;;;;;;5035956;28;20199;-82
2022/07/24 04:02:37;;;;;;;2.67;2.10;;;17.80;99.90;;;;;;5052383;28;20270;-82
2022/07/24 04:05:08;;;;;;;3.63;2.30;;;17.80;99.90;;;;;;5052576;28;20202;-80
2022/07/24 04:07:36;;;;;;;9.63;2.20;;;17.80;99.90;;;;;;5054009;28;20277;-82
2022/07/24 04:10:04;;;;;;;2.50;1.90;;;17.80;99.90;;;;;;5035930;28;20329;-82
2022/07/24 04:12:31;;;;;;;5.17;2.00;;;17.70;99.90;;;;;;5053403;28;20217;-84
2022/07/24 04:14:58;;;;;;;3.97;2.20;;;17.70;99.90;;;;;;5053633;28;20238;-84
2022/07/24 04:17:25;;;;;;;2.83;2.20;;;17.70;99.90;;;;;;5053573;28;20310;-84
2022/07/24 04:19:52;;;;;;;3.50;2.03;;;17.80;99.90;;;;;;5052340;28;20298;-83
2022/07/24 04:22:20;;;;;;;3.73;2.13;;;17.80;99.90;;;;;;5052001;28;20291;-83
2022/07/24 04:24:47;;;;;;;4.90;1.90;;;17.80;99.90;;;;;;5052323;28;20256;-84
2022/07/24 04:27:14;;;;;;;5.97;2.37;;;17.90;99.90;;;;;;5018842;28;20534;-83
2022/07/24 04:29:41;;;;;;;2.70;1.83;;;17.90;99.90;;;;;;5052070;28;20202;-84
2022/07/24 04:32:08;;;;;;;5.97;2.30;;;17.90;99.90;;;;;;5051858;28;20289;-83
2022/07/24 04:34:35;;;;;;;3.73;1.87;;;17.90;99.90;;;;;;5035497;28;20225;-84
2022/07/24 04:37:01;;;;;;;6.13;2.70;;;18.00;99.90;;;;;;5052030;28;20764;-83
2022/07/24 04:39:28;;;;;;;6.03;2.40;;;18.00;99.90;;;;;;5053070;28;20289;-82
2022/07/24 04:41:55;;;;;;;4.93;2.33;;;18.00;99.90;;;;;;5057397;28;20587;-82
2022/07/24 04:44:22;;;;;;;5.00;2.60;;;18.00;99.90;;;;;;5034630;28;20295;-84
2022/07/24 04:46:49;;;;;;;4.00;2.10;;;17.90;99.90;;;;;;5052181;28;20199;-82
2022/07/24 04:49:16;;;;;;;5.67;2.37;;;18.00;99.90;;;;;;5053053;28;20179;-83
2022/07/24 04:51:43;;;;;;;5.63;2.53;;;18.00;99.90;;;;;;5035116;28;20191;-84
2022/07/24 04:54:10;;;;;;;2.53;2.17;;;18.00;99.90;;;;;;5051493;28;20206;-83
2022/07/24 04:56:37;;;;;;;5.40;2.23;;;18.00;99.90;;;;;;5035004;28;20754;-83
2022/07/24 04:59:04;;;;;;;4.43;2.27;;;18.10;99.90;;;;;;5051682;28;20206;-83
2022/07/24 05:01:32;;;;;;;4.13;2.63;;;17.90;99.90;;;;;;5052883;28;20201;-83
2022/07/24 05:03:59;;;;;;;3.37;2.20;;;18.10;99.90;;;;;;5035212;28;20217;-81
2022/07/24 05:06:26;;;;;;;3.20;2.10;;;18.10;99.90;;;;;;5052067;28;20193;-83
2022/07/24 05:08:53;;;;;;;4.93;2.47;;;18.10;99.90;;;;;;5034753;28;20516;-81
2022/07/24 05:11:20;;;;;;;3.47;2.33;;;18.10;99.90;;;;;;5051235;28;20244;-83
2022/07/24 05:13:47;;;;;;;3.00;1.90;;;18.20;99.90;;;;;;5051430;28;20199;-82
2022/07/24 05:16:14;;;;;;;3.17;2.43;;;18.10;99.90;;;;;;5052872;28;20241;-83
2022/07/24 05:18:41;;;;;;;4.97;2.70;;;18.20;99.90;;;;;;5051792;28;20587;-82
2022/07/24 05:21:08;;;;;;;3.43;2.23;;;18.20;99.90;;;;;;5051224;28;20268;-82
2022/07/24 05:23:35;;;;;;;4.10;2.40;;;18.20;99.90;;;;;;5034657;28;20199;-82
2022/07/24 05:26:02;;;;;;;6.43;2.30;;;18.40;99.90;;;;;;5034617;28;20194;-82
2022/07/24 05:28:32;;;;;;;5.97;2.03;;;18.50;99.90;;;;;;5051543;28;20203;-83
2022/07/24 05:30:59;;;;;;;3.50;1.93;;;18.50;99.90;;;;;;5034998;28;20199;-83
2022/07/24 05:33:26;;;;;;;5.13;2.00;;;18.50;99.90;;;;;;5034839;28;20199;-82
2022/07/24 05:35:53;;;;;;;2.17;1.90;;;18.60;99.90;;;;;;5052547;28;20289;-81
2022/07/24 05:38:20;;;;;;;4.53;1.70;;;18.50;99.90;;;;;;5034667;28;20199;-83
2022/07/24 05:40:47;;;;;;;2.50;1.53;;;18.40;99.90;;;;;;5051038;28;20310;-83
2022/07/24 05:43:16;;;;;;;4.90;1.77;;;18.30;99.90;;;;;;5034685;28;20667;-81
2022/07/24 05:45:44;;;;;;;5.23;1.97;;;18.30;99.90;;;;;;5034642;28;20191;-82
2022/07/24 05:48:11;;;;;;;3.87;2.00;;;18.30;99.90;;;;;;5034779;28;20222;-82
2022/07/24 05:50:37;;;;;;;3.80;1.80;;;18.30;99.90;;;;;;5051105;28;20195;-82
2022/07/24 05:53:04;;;;;;;4.03;2.00;;;18.40;99.90;;;;;;5051836;28;20290;-82
2022/07/24 05:55:31;;;;;;;3.47;1.70;;;18.50;99.90;;;;;;5051768;28;20581;-81
2022/07/24 05:57:58;;;;;;;4.23;2.10;;;18.40;99.90;;;;;;5055031;28;20666;-80
2022/07/24 06:00:25;;;;;;;3.73;2.00;;;18.50;99.90;;;;;;5038205;28;20283;-81
2022/07/24 06:02:52;;;;;;;5.40;2.03;;;18.60;99.90;;;;;;5056020;28;20643;-81
2022/07/24 06:05:19;;;;;;;3.67;1.90;;;18.70;99.90;;;;;;5054800;28;20538;-80
2022/07/24 06:07:47;;;;;;;6.40;2.07;;;18.70;99.90;;;;;;5054574;28;20198;-81
2022/07/24 06:10:17;;;;;;;4.30;1.90;;;18.70;99.90;;;;;;5055640;28;20301;-80
2022/07/24 06:12:47;;;;;;;5.07;1.90;;;18.60;99.90;;;;;;5055706;28;20209;-82
2022/07/24 06:15:14;;;;;;;4.23;1.70;;;18.60;99.90;;;;;;5037802;28;20233;-82
2022/07/24 06:17:41;;;;;;;2.37;1.60;;;18.50;99.90;;;;;;5054802;28;20202;-81
2022/07/24 06:20:12;;;;;;;4.40;2.07;;;18.60;99.90;;;;;;5037734;28;20628;-82
2022/07/24 06:22:40;;;;;;;2.73;1.60;;;18.60;99.90;;;;;;5037950;28;20202;-82
2022/07/24 06:25:14;;;;;;;3.57;1.90;;;18.60;99.90;;;;;;5037685;28;20201;-81
2022/07/24 06:27:42;;;;;;;3.97;1.90;;;18.70;99.90;;;;;;5038197;28;20209;-81
2022/07/24 06:30:32;;;;;;;3.00;1.77;;;18.80;99.90;;;;;;5037626;28;20199;-82
2022/07/24 06:33:01;;;;;;;4.10;1.63;;;18.90;99.90;;;;;;5037409;28;20660;-82
2022/07/24 06:35:32;;;;;;;3.33;1.70;;;18.90;99.90;;;;;;5037172;28;20305;-81
2022/07/24 06:38:00;;;;;;;3.30;2.00;;;18.90;99.90;;;;;;5037480;28;20265;-82
2022/07/24 06:40:27;;;;;;;5.27;2.00;;;18.90;99.90;;;;;;5037288;28;20289;-81
2022/07/24 06:42:54;;;;;;;5.40;2.20;;;19.00;99.90;;;;;;5037107;28;20202;-82
2022/07/24 06:45:21;;;;;;;6.40;2.10;;;19.20;99.90;;;;;;5037640;28;20205;-82
2022/07/24 06:47:50;;;;;;;4.83;2.07;;;19.30;99.90;;;;;;5054084;28;20226;-82
2022/07/24 06:50:19;;;;;;;4.43;2.07;;;19.40;99.90;;;;;;5053787;28;20611;-81
2022/07/24 06:52:46;;;;;;;3.57;1.90;;;19.20;99.90;;;;;;5036894;28;20294;-81
2022/07/24 06:55:13;;;;;;;5.80;2.40;;;19.20;99.90;;;;;;5053681;28;20264;-82
2022/07/24 06:57:40;;;;;;;5.43;1.90;;;19.30;99.90;;;;;;5037153;28;20195;-80
2022/07/24 07:00:09;;;;;;;6.00;1.90;;;19.30;99.90;;;;;;5037212;28;20249;-80
2022/07/24 07:02:38;;;;;;;2.80;1.90;;;19.50;99.90;;;;;;5054908;28;20209;-81
2022/07/24 07:05:06;;;;;;;3.37;2.07;;;19.70;99.90;;;;;;5037226;28;20205;-81
2022/07/24 07:07:35;;;;;;;4.70;1.90;;;19.70;99.90;;;;;;5036687;28;20297;-81
2022/07/24 07:10:04;;;;;;;4.73;1.90;;;19.60;99.90;;;;;;5036597;28;20633;-81
2022/07/24 07:12:33;;;;;;;3.47;1.70;;;19.50;99.90;;;;;;5053513;28;20202;-81
2022/07/24 07:15:06;;;;;;;5.37;2.20;;;19.60;99.90;;;;;;5054841;28;20211;-81
2022/07/24 07:17:33;;;;;;;3.20;1.80;;;19.80;99.90;;;;;;5053628;28;20222;-81
2022/07/24 07:20:10;;;;;;;2.60;1.43;;;19.70;99.90;;;;;;5053271;28;20209;-81
2022/07/24 07:22:37;;;;;;;3.07;1.50;;;19.80;99.90;;;;;;5037138;28;20199;-82
2022/07/24 07:25:05;;;;;;;5.67;1.73;;;19.60;99.90;;;;;;5036747;28;20297;-81
2022/07/24 07:27:32;;;;;;;3.77;1.47;;;19.60;99.90;;;;;;5036949;28;20199;-81
2022/07/24 07:29:59;;;;;;;4.40;1.40;;;19.70;99.90;;;;;;5036555;28;20302;-81
2022/07/24 07:32:26;;;;;;;5.03;1.53;;;19.80;99.90;;;;;;5053081;28;20215;-82
2022/07/24 07:34:53;;;;;;;4.03;1.80;;;19.70;99.90;;;;;;5053438;28;20305;-81
2022/07/24 07:37:20;;;;;;;5.13;1.50;;;19.80;99.90;;;;;;5036615;28;20226;-81
2022/07/24 07:39:47;;;;;;;5.00;1.50;;;19.80;99.90;;;;;;5054351;28;20271;-80
2022/07/24 07:42:14;;;;;;;4.23;1.70;;;19.80;99.90;;;;;;5053036;28;20207;-79
2022/07/24 07:44:41;;;;;;;1.97;1.47;;;20.00;99.90;;;;;;5036068;28;20643;-82
2022/07/24 07:47:08;;;;;;;6.83;1.70;;;20.00;99.90;;;;;;5036930;28;20206;-81
2022/07/24 07:49:35;;;;;;;6.17;1.60;;;20.10;99.90;;;;;;5053216;28;20289;-81
2022/07/24 07:52:03;;;;;;;7.03;1.90;;;20.30;99.90;;;;;;5052962;28;20207;-81
2022/07/24 07:54:32;;;;;;;3.60;1.80;;;20.40;99.90;;;;;;5036434;28;20199;-81
2022/07/24 07:56:59;;;;;;;1.77;1.60;;;20.50;99.90;;;;;;5052476;28;20207;-82
2022/07/24 07:59:26;;;;;;;3.83;1.83;;;20.50;99.90;;;;;;5054103;28;20260;-81
2022/07/24 08:01:53;;;;;;;4.03;1.90;;;20.60;99.90;;;;;;5053916;28;20225;-80
2022/07/24 08:04:20;;;;;;;4.27;2.00;;;20.50;99.90;;;;;;5052523;28;20199;-80
2022/07/24 08:06:46;;;;;;;4.97;2.07;;;20.50;99.90;;;;;;5052488;28;20194;-79
2022/07/24 08:09:13;;;;;;;4.20;2.40;;;20.60;99.90;;;;;;5035597;28;20529;-80
2022/07/24 08:11:40;;;;;;;4.13;2.27;;;20.70;99.90;;;;;;5053264;28;20592;-80
2022/07/24 08:14:07;;;;;;;3.97;2.50;;;20.80;99.90;;;;;;5035104;28;20207;-82
2022/07/24 08:16:34;;;;;;;3.07;2.77;;;20.70;99.90;;;;;;5035290;28;20654;-80
2022/07/24 08:19:01;;;;;;;3.97;3.10;;;20.50;99.90;;;;;;5051663;28;20642;-80
2022/07/24 08:21:28;;;;;;;3.90;2.77;;;20.60;99.90;;;;;;5052385;28;20603;-81
2022/07/24 08:23:55;;;;;;;3.60;2.50;;;20.80;99.90;;;;;;5035269;28;20198;-81
2022/07/24 08:26:22;;;;;;;3.10;2.70;;;20.90;99.90;;;;;;5051913;28;20202;-81
2022/07/24 08:28:49;;;;;;;2.70;2.43;;;21.40;99.90;;;;;;5053419;28;20191;-81
2022/07/24 08:31:16;;;;;;;3.40;2.73;;;22.30;99.90;;;;;;5051976;28;20229;-82
2022/07/24 08:33:44;;;;;;;3.08;2.70;;;22.60;99.90;;;;;;5035253;28;20195;-82
2022/07/24 08:36:11;;;;;;;3.90;2.60;;;22.70;99.90;;;;;;5051771;28;20297;-81
2022/07/24 08:38:38;;;;;;;3.35;2.47;;;22.20;99.90;;;;;;5035417;28;20297;-81
2022/07/24 08:41:05;;;;;;;3.00;2.70;;;22.20;99.90;;;;;;5035454;28;20222;-81
2022/07/24 08:43:32;;;;;;;3.20;2.57;;;21.90;99.90;;;;;;5035413;28;20294;-81
2022/07/24 08:46:02;;;;;;;4.07;2.60;;;21.40;99.90;;;;;;5052111;28;20298;-80
2022/07/24 08:48:30;;;;;;;3.50;2.43;;;21.50;99.90;;;;;;5053248;28;20658;-80
2022/07/24 08:50:58;;;;;;;3.73;2.47;;;21.90;99.90;;;;;;5035503;28;20199;-80
2022/07/24 08:53:25;;;;;;;3.17;2.83;;;21.90;99.90;;;;;;5053160;28;20215;-80
2022/07/24 08:55:52;;;;;;;4.80;2.90;;;21.80;99.90;;;;;;5034766;28;20222;-81
2022/07/24 08:58:19;;;;;;;3.43;2.80;;;21.80;99.90;;;;;;5053224;28;20215;-81
2022/07/24 09:00:46;;;;;;;4.93;2.97;;;21.60;99.90;;;;;;5035448;28;20489;-81
2022/07/24 09:03:13;;;;;;;4.93;2.70;;;21.50;99.90;;;;;;5051534;28;20286;-81
2022/07/24 09:06:01;;;;;;;3.10;2.80;;;21.40;99.90;;;;;;5051572;28;20195;-82
2022/07/24 09:08:28;;;;;;;4.30;2.73;;;21.30;99.90;;;;;;5035292;28;20297;-83
2022/07/24 09:11:04;;;;;;;3.17;2.23;;;21.20;99.90;;;;;;5052502;28;20230;-83
2022/07/24 09:16:25;;;;;;;5.57;2.50;;;21.10;99.90;;;;;;5034993;28;20635;-80
2022/07/24 09:19:13;;;;;;;6.73;3.00;;;21.10;99.90;;;;;;5034978;28;20195;-80
2022/07/24 09:21:44;;;;;;;5.90;2.70;;;21.10;99.90;;;;;;5035218;28;20195;-81
2022/07/24 09:24:17;;;;;;;3.10;2.70;;;21.20;99.90;;;;;;5034884;28;20198;-78
2022/07/24 09:26:55;;;;;;;4.17;2.90;;;21.00;99.90;;;;;;5052667;28;20222;-78
2022/07/24 09:29:24;;;;;;;3.40;2.73;;;20.80;99.90;;;;;;5034851;28;20191;-78
2022/07/24 09:32:01;;;;;;;4.10;3.10;;;20.90;99.90;;;;;;5037908;28;20285;-79
2022/07/24 09:34:37;;;;;;;5.37;3.13;;;20.70;99.90;;;;;;5038509;28;20256;-78
2022/07/24 09:37:08;;;;;;;3.50;3.20;;;21.10;99.90;;;;;;5055369;28;20268;-78
2022/07/24 09:39:36;;;;;;;4.57;2.90;;;21.30;99.90;;;;;;5056528;28;20217;-80
2022/07/24 09:42:07;;;;;;;3.50;3.20;;;21.50;99.90;;;;;;5056420;28;20176;-78
2022/07/24 09:44:34;;;;;;;3.40;3.10;;;21.90;99.90;;;;;;5038654;28;20305;-78
2022/07/24 09:47:05;;;;;;;4.30;2.93;;;22.30;99.90;;;;;;5038408;28;20191;-80
2022/07/24 09:49:33;;;;;;;6.20;3.67;;;22.60;99.90;;;;;;5038712;28;20211;-79
2022/07/24 09:52:10;;;;;;;5.30;3.43;;;22.50;99.90;;;;;;5038314;28;20234;-79
2022/07/24 09:54:49;;;;;;;5.90;3.50;;;22.30;99.90;;;;;;5038179;28;20262;-79
2022/07/24 09:57:28;;;;;;;5.87;3.00;;;22.10;99.90;;;;;;5038128;28;20226;-80
2022/07/24 10:00:01;;;;;;;3.17;2.80;;;22.20;99.90;;;;;;5056303;28;20601;-81
2022/07/24 10:02:31;;;;;;;5.07;3.00;;;22.30;99.90;;;;;;5056172;28;20201;-79
2022/07/24 10:05:00;;;;;;;3.43;2.63;;;21.90;99.90;;;;;;5037862;28;20235;-80
2022/07/24 10:07:28;;;;;;;4.70;2.90;;;22.10;99.90;;;;;;5054385;28;20195;-82
2022/07/24 10:09:58;;;;;;;3.47;2.83;;;22.20;99.90;;;;;;5055604;28;20233;-83
2022/07/24 10:12:30;;;;;;;3.73;3.10;;;21.80;99.90;;;;;;5037752;28;20191;-83
2022/07/24 10:14:59;;;;;;;3.53;3.17;;;21.60;99.90;;;;;;5056000;28;20283;-82
2022/07/24 10:17:54;;;;;;;4.37;3.33;;;21.60;99.90;;;;;;5037954;28;20288;-81
2022/07/24 10:20:41;;;;;;;3.10;2.80;;;21.60;99.90;;;;;;5021457;28;20330;-82
2022/07/24 10:23:22;;;;;;;3.77;3.00;;;21.70;99.90;;;;;;5037584;28;20253;-83
2022/07/24 10:25:49;;;;;;;2.93;2.63;;;22.00;99.90;;;;;;5037659;28;20206;-83
2022/07/24 10:28:34;;;;;;;4.80;2.70;;;22.30;99.90;;;;;;5055399;28;20191;-82
2022/07/24 10:31:03;;;;;;;3.17;2.80;;;22.50;99.90;;;;;;5037858;28;20248;-80
2022/07/24 10:33:31;;;;;;;4.33;3.20;;;22.30;99.90;;;;;;5055078;28;20245;-81
2022/07/24 10:36:01;;;;;;;4.27;3.20;;;21.90;99.90;;;;;;5020593;28;20223;-81
2022/07/24 10:38:39;;;;;;;4.27;3.10;;;21.90;99.90;;;;;;5037111;28;20234;-81
2022/07/24 10:41:14;;;;;;;3.43;3.13;;;21.80;99.90;;;;;;5036866;28;20244;-81
2022/07/24 10:44:11;;;;;;;5.60;3.33;;;22.00;99.90;;;;;;5036543;28;20199;-81
2022/07/24 10:46:56;;;;;;;3.30;2.90;;;22.20;99.90;;;;;;5037049;28;20619;-81
2022/07/24 10:49:43;;;;;;;3.37;2.83;;;22.20;99.90;;;;;;5036998;28;20516;-81
2022/07/24 10:52:23;;;;;;;3.13;2.83;;;22.40;99.90;;;;;;5037086;28;20209;-81
2022/07/24 10:55:22;;;;;;;4.20;2.67;;;22.20;99.90;;;;;;5055119;28;20183;-82
2022/07/24 10:57:55;;;;;;;3.10;2.40;;;22.10;99.90;;;;;;5036950;28;20202;-82
2022/07/24 11:00:24;;;;;;;5.20;2.60;;;22.10;99.90;;;;;;5054884;28;20215;-80
2022/07/24 11:02:57;;;;;;;2.80;2.50;;;22.00;99.90;;;;;;5036705;28;20199;-80
2022/07/24 11:05:33;;;;;;;2.67;2.40;;;21.80;99.90;;;;;;5037037;28;20207;-81
2022/07/24 11:08:12;;;;;;;3.53;2.47;;;21.80;99.90;;;;;;5036808;28;20226;-80
2022/07/24 11:10:46;;;;;;;3.37;3.07;;;22.00;99.90;;;;;;5036617;28;20276;-81
2022/07/24 11:13:32;;;;;;;2.70;2.50;;;22.30;99.90;;;;;;5036534;28;20656;-81
2022/07/24 11:16:15;;;;;;;3.20;2.80;;;22.50;99.90;;;;;;5054693;28;20249;-81
2022/07/24 11:18:52;;;;;;;4.07;2.70;;;22.80;99.90;;;;;;5036701;28;20203;-81
2022/07/24 11:21:37;;;;;;;3.17;2.40;;;22.80;99.90;;;;;;5036767;28;20320;-80
2022/07/24 11:24:17;;;;;;;3.20;2.47;;;22.90;99.90;;;;;;5053166;28;20226;-81
2022/07/24 11:27:12;;;;;;;4.27;2.70;;;23.20;99.90;;;;;;5052798;28;20651;-82
2022/07/24 11:29:39;;;;;;;3.65;2.63;;;23.20;99.90;;;;;;5036255;28;20249;-81
2022/07/24 11:32:10;;;;;;;5.30;2.55;;;23.70;99.90;;;;;;5053003;28;20218;-82
2022/07/24 11:34:50;;;;;;;2.78;2.42;;;24.60;99.90;;;;;;5036465;28;20236;-81
2022/07/24 11:37:19;;;;;;;3.95;2.70;;;25.20;99.90;;;;;;5036348;28;20309;-83
2022/07/24 11:39:46;;;;;;;3.08;2.75;;;25.30;99.90;;;;;;5054163;28;20187;-82
2022/07/24 11:42:16;;;;;;;3.13;2.40;;;25.20;99.90;;;;;;5036331;28;20201;-83
2022/07/24 11:44:46;;;;;;;7.18;2.40;;;25.90;99.90;;;;;;5036553;28;20199;-83
2022/07/24 11:47:16;;;;;;;2.95;2.53;;;26.00;99.90;;;;;;5036166;28;20248;-82
2022/07/24 11:49:46;;;;;;;4.03;2.50;;;25.50;99.90;;;;;;5036654;28;20240;-82
2022/07/24 11:52:17;;;;;;;2.75;2.35;;;25.60;99.90;;;;;;5035946;28;20888;-85
2022/07/24 11:54:46;;;;;;;3.25;2.40;;;25.00;99.90;;;;;;5036068;28;20616;-82
2022/07/24 11:57:22;;;;;;;3.05;2.53;;;24.60;99.90;;;;;;5052315;28;20317;-81
2022/07/24 12:00:12;;;;;;;4.32;2.03;;;24.00;99.90;;;;;;5035822;28;20191;-81
2022/07/24 12:02:56;;;;;;;2.40;2.20;;;24.20;99.90;;;;;;5035509;28;20652;-81
2022/07/24 12:05:28;;;;;;;2.60;2.30;;;24.10;99.90;;;;;;5035593;28;20604;-81
2022/07/24 12:07:59;;;;;;;3.28;2.42;;;24.00;99.90;;;;;;5035596;28;20302;-82
2022/07/24 12:10:29;;;;;;;3.15;2.85;;;23.50;99.90;;;;;;5032018;28;20230;-80
2022/07/24 12:12:59;;;;;;;3.30;2.60;;;23.20;99.90;;;;;;5032737;28;20227;-80
2022/07/24 12:15:26;;;;;;;3.28;2.80;;;23.00;99.90;;;;;;5031956;28;20261;-80
2022/07/24 12:18:01;;;;;;;3.78;2.80;;;23.00;99.90;;;;;;5034427;28;20325;-79
2022/07/24 12:20:34;;;;;;;3.08;2.88;;;22.90;99.90;;;;;;5032250;28;20199;-80
2022/07/24 12:23:05;;;;;;;3.10;2.60;;;22.80;99.90;;;;;;5032016;28;20227;-80
2022/07/24 12:25:32;;;;;;;3.20;2.90;;;23.10;99.90;;;;;;5032291;28;20200;-80
2022/07/24 12:28:10;;;;;;;4.72;2.97;;;23.30;99.90;;;;;;5031993;28;20675;-81
2022/07/24 12:30:48;;;;;;;3.40;2.70;;;23.10;99.90;;;;;;5032075;28;20207;-81
2022/07/24 12:33:15;;;;;;;4.53;3.22;;;23.30;99.90;;;;;;5033580;28;20671;-79
2022/07/24 12:35:58;;;;;;;3.70;3.25;;;23.50;99.90;;;;;;5032223;28;20629;-80
2022/07/24 12:38:30;;;;;;;4.32;3.58;;;24.10;99.90;;;;;;5032067;28;20756;-80
2022/07/24 12:41:01;;;;;;;4.70;3.50;;;23.90;99.90;;;;;;5031712;28;20624;-80
2022/07/24 12:43:28;;;;;;;4.03;3.63;;;23.70;99.90;;;;;;5031771;28;20227;-80
2022/07/24 12:46:10;;;;;;;3.80;3.35;;;23.60;99.90;;;;;;5033111;28;20301;-79
2022/07/24 12:48:37;;;;;;;4.70;3.05;;;23.50;99.90;;;;;;5033067;28;20195;-81
2022/07/24 12:51:05;;;;;;;5.10;3.30;;;23.30;99.90;;;;;;5031558;28;20226;-81
2022/07/24 12:53:34;;;;;;;4.22;3.25;;;22.80;99.90;;;;;;5031453;28;20203;-81
2022/07/24 12:56:10;;;;;;;5.00;3.55;;;22.60;99.90;;;;;;5014565;28;20199;-80
2022/07/24 12:59:00;;;;;;;4.63;3.83;;;22.30;99.90;;;;;;5031805;28;20205;-80